createdAt,value
2022-07-28T00:00:42.458Z,1.63
2022-07-28T00:03:10.950Z,1.80
2022-07-28T00:05:39.424Z,1.73
2022-07-28T00:08:07.830Z,1.80
2022-07-28T00:10:36.249Z,1.50
2022-07-28T00:13:07.005Z,1.70
2022-07-28T00:15:35.576Z,1.63
2022-07-28T00:18:05.517Z,1.70
2022-07-28T00:20:34.064Z,1.80
2022-07-28T00:23:02.420Z,1.90
2022-07-28T00:25:30.796Z,1.93
2022-07-28T00:27:59.191Z,2.00
2022-07-28T00:30:27.573Z,1.70
2022-07-28T00:32:56.415Z,1.97
2022-07-28T00:35:30.874Z,1.93
2022-07-28T00:38:00.244Z,1.90
2022-07-28T00:40:43.495Z,2.00
2022-07-28T00:43:11.883Z,1.70
2022-07-28T00:45:40.299Z,1.87
2022-07-28T00:48:08.737Z,2.27
2022-07-28T00:50:40.378Z,2.03
2022-07-28T00:53:08.978Z,1.93
2022-07-28T00:56:05.299Z,1.87
2022-07-28T00:58:27.822Z,2.00
2022-07-28T01:00:56.492Z,2.10
2022-07-28T01:03:25.002Z,2.80
2022-07-28T01:05:58.669Z,2.60
2022-07-28T01:08:30.037Z,2.50
2022-07-28T01:11:03.407Z,2.30
2022-07-28T01:13:35.149Z,2.20
2022-07-28T01:16:04.983Z,2.23
2022-07-28T01:18:35.609Z,2.43
2022-07-28T01:21:07.193Z,2.40
2022-07-28T01:24:02.598Z,2.50
2022-07-28T01:26:37.526Z,2.23
2022-07-28T01:29:15.468Z,2.23
2022-07-28T01:31:46.383Z,2.30
2022-07-28T01:34:16.762Z,2.63
2022-07-28T01:36:47.677Z,2.30
2022-07-28T01:39:16.924Z,2.37
2022-07-28T01:41:45.929Z,2.10
2022-07-28T01:44:16.907Z,2.10
2022-07-28T01:46:48.149Z,2.57
2022-07-28T01:49:16.961Z,2.30
2022-07-28T01:51:46.666Z,2.50
2022-07-28T01:54:16.571Z,2.67
2022-07-28T01:56:45.892Z,2.30
2022-07-28T01:59:15.863Z,2.83
2022-07-28T02:01:46.255Z,2.30
2022-07-28T02:04:17.473Z,2.23
2022-07-28T02:06:48.003Z,2.30
2022-07-28T02:09:17.865Z,2.30
2022-07-28T02:11:47.643Z,2.27
2022-07-28T02:14:17.767Z,2.30
2022-07-28T02:16:48.618Z,2.47
2022-07-28T02:19:19.788Z,2.37
2022-07-28T02:21:48.868Z,2.53
2022-07-28T02:24:18.772Z,2.30
2022-07-28T02:26:50.364Z,2.10
2022-07-28T02:29:48.074Z,2.20
2022-07-28T02:32:27.299Z,1.97
2022-07-28T02:35:00.203Z,2.30
2022-07-28T02:37:28.763Z,2.20
2022-07-28T02:40:00.551Z,2.20
2022-07-28T02:42:32.910Z,2.30
2022-07-28T02:45:06.204Z,2.63
2022-07-28T02:47:39.067Z,2.30
2022-07-28T02:50:09.568Z,2.57
2022-07-28T02:52:38.897Z,2.47
2022-07-28T02:55:08.576Z,2.37
2022-07-28T02:57:37.309Z,2.30
2022-07-28T03:00:06.156Z,2.30
2022-07-28T03:02:36.846Z,2.63
2022-07-28T03:05:07.605Z,2.90
2022-07-28T03:07:50.382Z,2.20
2022-07-28T03:10:33.989Z,2.37
2022-07-28T03:13:03.796Z,2.17
2022-07-28T03:15:32.309Z,2.10
2022-07-28T03:18:00.861Z,2.30
2022-07-28T03:20:30.367Z,2.40
2022-07-28T03:23:00.297Z,1.97
2022-07-28T03:25:30.207Z,2.10
2022-07-28T03:27:59.954Z,2.30
2022-07-28T03:30:29.375Z,2.53
2022-07-28T03:32:59.169Z,2.33
2022-07-28T03:35:27.858Z,2.47
2022-07-28T03:37:57.857Z,2.40
2022-07-28T03:40:29.678Z,2.60
2022-07-28T03:42:58.626Z,2.50
2022-07-28T03:45:27.093Z,2.40
2022-07-28T03:47:56.316Z,2.60
2022-07-28T03:50:24.882Z,2.37
2022-07-28T03:52:53.695Z,2.63
2022-07-28T03:55:22.304Z,2.60
2022-07-28T03:57:52.132Z,2.80
2022-07-28T04:00:21.603Z,2.90
2022-07-28T04:02:50.121Z,2.30
2022-07-28T04:05:20.032Z,2.40
2022-07-28T04:07:48.529Z,2.60
2022-07-28T04:10:17.874Z,2.60
2022-07-28T04:12:47.354Z,2.73
2022-07-28T04:15:17.295Z,2.97
2022-07-28T04:17:46.005Z,2.50
2022-07-28T04:20:18.176Z,2.30
2022-07-28T04:22:46.627Z,2.80
2022-07-28T04:25:15.351Z,2.53
2022-07-28T04:27:44.253Z,2.53
2022-07-28T04:30:14.579Z,2.70
2022-07-28T04:32:44.476Z,2.40
2022-07-28T04:35:17.317Z,2.40
2022-07-28T04:37:46.519Z,2.77
2022-07-28T04:40:15.418Z,2.73
2022-07-28T04:42:44.259Z,2.97
2022-07-28T04:45:12.977Z,2.90
2022-07-28T04:47:41.667Z,2.93
2022-07-28T04:50:15.171Z,3.10
2022-07-28T04:52:43.972Z,2.93
2022-07-28T04:55:12.398Z,3.30
2022-07-28T04:57:40.814Z,3.27
2022-07-28T05:00:13.582Z,3.50
2022-07-28T05:02:42.334Z,2.90
2022-07-28T05:05:12.540Z,3.30
2022-07-28T05:07:41.324Z,3.20
2022-07-28T05:10:13.892Z,3.13
2022-07-28T05:12:42.368Z,3.53
2022-07-28T05:15:20.348Z,3.30
2022-07-28T05:17:48.784Z,3.50
2022-07-28T05:20:18.519Z,3.40
2022-07-28T05:22:47.757Z,3.93
2022-07-28T05:25:17.322Z,3.57
2022-07-28T05:27:45.976Z,3.63
2022-07-28T05:30:15.073Z,3.50
2022-07-28T05:32:45.243Z,3.20
2022-07-28T05:35:14.234Z,3.50
2022-07-28T05:37:44.784Z,3.40
2022-07-28T05:40:14.851Z,3.53
2022-07-28T05:42:43.880Z,3.80
2022-07-28T05:45:16.052Z,3.67
2022-07-28T05:47:46.376Z,4.30
2022-07-28T05:50:15.422Z,4.10
2022-07-28T05:52:45.273Z,4.23
2022-07-28T05:55:13.679Z,3.93
2022-07-28T05:57:42.895Z,3.70
2022-07-28T06:00:12.466Z,3.87
2022-07-28T06:02:40.934Z,4.20
2022-07-28T06:05:09.957Z,4.53
2022-07-28T06:07:43.126Z,5.13
2022-07-28T06:10:14.634Z,4.30
2022-07-28T06:12:43.282Z,4.30
2022-07-28T06:15:14.397Z,4.50
2022-07-28T06:17:42.970Z,3.83
2022-07-28T06:20:12.157Z,3.47
2022-07-28T06:22:44.797Z,3.40
2022-07-28T06:25:18.074Z,2.90
2022-07-28T06:27:47.307Z,3.30
2022-07-28T06:30:15.915Z,2.97
2022-07-28T06:32:44.359Z,3.00
2022-07-28T06:35:16.385Z,2.77
2022-07-28T06:37:44.896Z,2.90
2022-07-28T06:40:14.009Z,2.37
2022-07-28T06:42:44.392Z,2.20
2022-07-28T06:45:21.023Z,2.17
2022-07-28T06:47:49.957Z,2.50
2022-07-28T06:50:25.866Z,2.40
2022-07-28T06:52:55.209Z,2.20
2022-07-28T06:55:23.777Z,2.00
2022-07-28T06:57:54.429Z,2.03
2022-07-28T07:00:22.899Z,1.80
2022-07-28T07:02:51.317Z,1.87
2022-07-28T07:05:19.801Z,1.90
2022-07-28T07:07:48.251Z,1.83
2022-07-28T07:10:16.921Z,1.80
2022-07-28T07:12:45.332Z,1.27
2022-07-28T07:15:15.228Z,1.40
2022-07-28T07:17:43.812Z,1.67
2022-07-28T07:20:13.505Z,1.48
2022-07-28T07:22:45.078Z,1.58
2022-07-28T07:25:14.219Z,1.38
2022-07-28T07:27:42.959Z,1.20
2022-07-28T07:30:12.153Z,1.30
2022-07-28T07:32:41.956Z,1.10
2022-07-28T07:35:11.370Z,1.33
2022-07-28T07:37:39.900Z,1.23
2022-07-28T07:40:09.004Z,1.30
2022-07-28T07:42:37.536Z,1.40
2022-07-28T07:45:06.401Z,1.08
2022-07-28T07:47:34.931Z,1.20
2022-07-28T07:50:04.799Z,1.17
2022-07-28T07:52:33.324Z,1.30
2022-07-28T07:55:10.140Z,1.20
2022-07-28T07:57:38.552Z,1.17
2022-07-28T08:00:07.454Z,0.95
2022-07-28T08:02:35.931Z,1.02
2022-07-28T08:05:06.763Z,1.00
2022-07-28T08:07:37.487Z,1.20
2022-07-28T08:10:06.336Z,1.08
2022-07-28T08:21:22.810Z,1.13
2022-07-28T08:23:51.212Z,1.10
2022-07-28T08:26:19.641Z,0.95
2022-07-28T08:28:48.004Z,0.98
2022-07-28T08:31:17.925Z,1.00
2022-07-28T08:33:53.363Z,1.30
2022-07-28T08:36:24.325Z,1.20
2022-07-28T08:38:53.343Z,0.90
2022-07-28T08:41:33.357Z,1.17
2022-07-28T08:44:04.812Z,1.25
2022-07-28T08:46:36.475Z,0.95
2022-07-28T08:49:08.967Z,1.10
2022-07-28T08:51:41.673Z,1.10
2022-07-28T08:54:11.338Z,1.15
2022-07-28T08:56:48.138Z,1.10
2022-07-28T08:59:17.053Z,1.13
2022-07-28T09:01:45.801Z,1.35
2022-07-28T09:04:14.914Z,1.25
2022-07-28T09:06:45.059Z,1.02
2022-07-28T09:09:13.554Z,1.17
2022-07-28T09:11:42.031Z,1.05
2022-07-28T09:14:10.750Z,1.08
2022-07-28T09:16:39.832Z,0.93
2022-07-28T09:19:08.263Z,1.10
2022-07-28T09:21:36.755Z,1.10
2022-07-28T09:24:07.077Z,1.00
2022-07-28T09:26:35.522Z,1.10
2022-07-28T09:29:04.447Z,1.23
2022-07-28T09:31:32.930Z,1.30
2022-07-28T09:34:02.140Z,1.15
2022-07-28T09:36:31.223Z,1.20
2022-07-28T09:38:59.796Z,1.35
2022-07-28T09:41:29.633Z,1.13
2022-07-28T09:43:58.335Z,1.20
2022-07-28T09:46:29.930Z,0.93
2022-07-28T09:48:59.616Z,1.15
2022-07-28T09:51:29.050Z,1.00
2022-07-28T09:54:08.002Z,1.10
2022-07-28T09:56:37.876Z,1.33
2022-07-28T09:59:07.399Z,1.23
2022-07-28T10:01:52.028Z,1.15
2022-07-28T10:04:30.753Z,1.40
2022-07-28T10:07:02.904Z,1.35
2022-07-28T10:09:31.734Z,1.20
2022-07-28T10:12:14.949Z,1.30
2022-07-28T10:14:46.329Z,1.08
2022-07-28T10:17:24.293Z,1.05
2022-07-28T10:19:54.451Z,1.27
2022-07-28T10:22:24.692Z,1.50
2022-07-28T10:24:55.220Z,1.30
2022-07-28T10:27:25.095Z,1.20
2022-07-28T10:29:57.468Z,1.48
2022-07-28T10:32:26.270Z,1.10
2022-07-28T10:34:57.994Z,1.27
2022-07-28T10:37:28.903Z,1.55
2022-07-28T10:40:06.616Z,1.13
2022-07-28T10:42:38.640Z,1.20
2022-07-28T10:45:10.009Z,1.23
2022-07-28T10:47:38.434Z,1.38
2022-07-28T10:50:08.762Z,1.30
2022-07-28T10:52:59.129Z,1.30
2022-07-28T10:55:32.409Z,1.20
2022-07-28T10:58:11.220Z,1.25
2022-07-28T11:00:55.925Z,1.33
2022-07-28T11:03:38.556Z,1.33
2022-07-28T11:06:26.083Z,1.30
2022-07-28T11:08:54.850Z,1.48
2022-07-28T11:11:40.949Z,1.20
2022-07-28T11:14:29.760Z,1.27
2022-07-28T11:17:13.063Z,1.30
2022-07-28T11:22:42.840Z,1.10
2022-07-28T11:25:20.764Z,1.20
2022-07-28T11:28:04.523Z,1.55
2022-07-28T11:30:55.308Z,1.48
2022-07-28T11:33:25.149Z,1.13
2022-07-28T11:36:11.457Z,1.23
2022-07-28T11:38:41.250Z,1.20
2022-07-28T11:41:30.091Z,1.48
2022-07-28T11:43:59.307Z,1.10
2022-07-28T11:46:28.447Z,1.20
2022-07-28T11:49:16.797Z,1.35
2022-07-28T11:52:00.207Z,1.35
2022-07-28T11:54:32.447Z,1.30
2022-07-28T11:57:02.500Z,1.23
2022-07-28T11:59:37.161Z,1.10
2022-07-28T12:02:05.918Z,1.30
2022-07-28T12:04:34.501Z,1.15
2022-07-28T12:07:04.089Z,1.42
2022-07-28T12:09:41.945Z,1.20
2022-07-28T12:12:11.304Z,1.10
2022-07-28T12:14:44.793Z,1.13
2022-07-28T12:17:15.019Z,1.00
2022-07-28T12:19:44.825Z,1.40
2022-07-28T12:22:15.881Z,1.35
2022-07-28T12:24:46.420Z,1.30
2022-07-28T12:27:16.747Z,1.42
2022-07-28T12:29:47.876Z,1.55
2022-07-28T12:32:18.707Z,1.40
2022-07-28T12:34:47.212Z,1.40
2022-07-28T12:37:16.001Z,1.27
2022-07-28T12:39:46.269Z,1.20
2022-07-28T12:42:15.649Z,1.20
2022-07-28T12:44:45.066Z,1.27
2022-07-28T12:47:14.309Z,1.10
2022-07-28T12:49:44.249Z,1.55
2022-07-28T12:52:16.380Z,1.27
2022-07-28T12:54:53.317Z,1.00
2022-07-28T12:57:38.567Z,1.35
2022-07-28T13:00:08.534Z,1.30
2022-07-28T13:02:38.078Z,1.33
2022-07-28T13:05:07.818Z,1.30
2022-07-28T13:07:36.510Z,1.13
2022-07-28T13:10:07.285Z,1.50
2022-07-28T13:12:40.864Z,1.20
2022-07-28T13:15:17.071Z,1.50
2022-07-28T13:17:52.344Z,1.30
2022-07-28T13:20:22.004Z,1.20
2022-07-28T13:22:50.494Z,1.20
2022-07-28T13:25:20.349Z,1.17
2022-07-28T13:27:54.922Z,1.50
2022-07-28T13:30:24.428Z,1.30
2022-07-28T13:32:54.826Z,1.25
2022-07-28T13:35:23.636Z,1.10
2022-07-28T13:37:52.034Z,1.27
2022-07-28T13:40:22.384Z,1.27
2022-07-28T13:42:53.308Z,1.58
2022-07-28T13:45:29.982Z,1.40
2022-07-28T13:47:59.000Z,1.20
2022-07-28T13:50:27.504Z,1.38
2022-07-28T13:52:55.977Z,1.40
2022-07-28T13:55:27.087Z,1.20
2022-07-28T13:57:56.611Z,1.10
2022-07-28T14:00:25.192Z,1.25
2022-07-28T14:02:53.720Z,1.30
2022-07-28T14:05:22.318Z,1.05
2022-07-28T14:07:51.385Z,1.40
2022-07-28T14:10:19.792Z,1.38
2022-07-28T14:12:49.587Z,1.33
2022-07-28T14:15:18.000Z,1.33
2022-07-28T14:17:46.624Z,1.40
2022-07-28T14:20:15.778Z,1.40
2022-07-28T14:22:44.413Z,1.30
2022-07-28T14:25:19.496Z,1.40
2022-07-28T14:27:51.757Z,1.50
2022-07-28T14:30:20.612Z,1.02
2022-07-28T14:32:49.059Z,1.33
2022-07-28T14:35:17.685Z,1.42
2022-07-28T14:38:35.040Z,1.40
2022-07-28T14:40:39.717Z,1.50
2022-07-28T14:43:10.278Z,1.20
2022-07-28T14:46:01.624Z,1.30
2022-07-28T14:48:27.310Z,1.20
2022-07-28T14:50:57.164Z,1.10
2022-07-28T14:53:28.090Z,1.25
2022-07-28T14:55:57.093Z,1.50
2022-07-28T14:58:26.881Z,1.40
2022-07-28T15:00:55.888Z,1.25
2022-07-28T15:03:26.902Z,1.33
2022-07-28T15:05:55.296Z,1.38
2022-07-28T15:08:25.844Z,1.25
2022-07-28T15:10:58.730Z,1.27
2022-07-28T15:13:28.691Z,1.15
2022-07-28T15:15:59.850Z,1.40
2022-07-28T15:18:28.552Z,1.27
2022-07-28T15:20:57.138Z,1.30
2022-07-28T15:23:25.684Z,1.35
2022-07-28T15:25:56.038Z,1.35
2022-07-28T15:28:24.531Z,1.30
2022-07-28T15:30:54.550Z,1.50
2022-07-28T15:33:25.496Z,1.10
2022-07-28T15:35:58.973Z,1.20
2022-07-28T15:38:28.087Z,1.42
2022-07-28T15:40:58.686Z,1.20
2022-07-28T15:43:27.125Z,1.20
2022-07-28T15:45:57.615Z,1.40
2022-07-28T15:48:26.114Z,1.23
2022-07-28T15:50:54.497Z,1.15
2022-07-28T15:53:23.129Z,1.25
2022-07-28T15:55:52.066Z,1.02
2022-07-28T15:58:21.249Z,1.40
2022-07-28T16:00:49.820Z,1.83
2022-07-28T16:03:19.802Z,1.60
2022-07-28T16:05:49.960Z,1.40
2022-07-28T16:08:22.565Z,1.20
2022-07-28T16:10:52.487Z,1.15
2022-07-28T16:13:36.554Z,1.27
2022-07-28T16:16:07.052Z,1.55
2022-07-28T16:18:37.592Z,1.20
2022-07-28T16:21:06.342Z,1.20
2022-07-28T16:23:34.841Z,1.15
2022-07-28T16:26:05.161Z,1.20
2022-07-28T16:28:33.644Z,1.40
2022-07-28T16:31:02.083Z,1.15
2022-07-28T16:33:33.006Z,1.45
2022-07-28T16:36:03.514Z,1.42
2022-07-28T16:38:38.669Z,1.60
2022-07-28T16:41:22.050Z,1.20
2022-07-28T16:43:50.980Z,1.20
2022-07-28T16:46:27.257Z,1.30
2022-07-28T16:48:55.918Z,1.60
2022-07-28T16:51:25.837Z,1.30
2022-07-28T16:53:54.286Z,1.30
2022-07-28T16:56:22.659Z,1.58
2022-07-28T16:58:51.265Z,1.30
2022-07-28T17:01:20.713Z,1.23
2022-07-28T17:03:49.266Z,1.33
2022-07-28T17:06:17.664Z,1.40
2022-07-28T17:08:50.436Z,1.58
2022-07-28T17:11:19.540Z,1.30
2022-07-28T17:13:49.107Z,1.17
2022-07-28T17:16:17.619Z,1.30
2022-07-28T17:18:46.156Z,1.48
2022-07-28T17:21:14.541Z,1.38
2022-07-28T17:23:43.027Z,1.30
2022-07-28T17:29:01.294Z,1.40
2022-07-28T17:31:33.703Z,1.23
2022-07-28T17:34:02.624Z,1.40
2022-07-28T17:36:34.035Z,1.30
2022-07-28T17:39:03.403Z,1.23
2022-07-28T17:41:33.576Z,1.42
2022-07-28T17:44:02.891Z,1.30
2022-07-28T17:46:31.536Z,1.73
2022-07-28T17:49:00.442Z,1.38
2022-07-28T17:51:29.023Z,1.30
2022-07-28T17:53:57.584Z,1.30
2022-07-28T17:56:26.605Z,1.20
2022-07-28T17:59:00.982Z,1.40
2022-07-28T18:01:29.980Z,1.33
2022-07-28T18:04:00.959Z,1.38
2022-07-28T18:06:30.740Z,1.25
2022-07-28T18:09:06.521Z,1.20
2022-07-28T18:11:37.449Z,1.38
2022-07-28T18:14:08.503Z,1.08
2022-07-28T18:19:20.760Z,1.15
2022-07-28T18:21:49.164Z,1.10
2022-07-28T18:24:18.228Z,1.10
2022-07-28T18:26:47.060Z,1.40
2022-07-28T18:29:17.768Z,1.30
2022-07-28T18:31:47.088Z,1.20
2022-07-28T18:34:16.535Z,1.20
2022-07-28T18:36:45.890Z,1.10
2022-07-28T18:39:14.356Z,1.40
2022-07-28T18:41:46.192Z,1.10
2022-07-28T18:44:18.858Z,1.10
2022-07-28T18:46:48.344Z,1.15
2022-07-28T18:49:17.266Z,1.20
2022-07-28T18:51:45.995Z,1.10
2022-07-28T18:54:18.766Z,1.10
2022-07-28T18:56:50.185Z,1.20
2022-07-28T18:59:20.016Z,1.48
2022-07-28T19:01:48.472Z,1.15
2022-07-28T19:04:20.109Z,1.10
2022-07-28T19:06:48.648Z,1.20
2022-07-28T19:09:17.074Z,1.30
2022-07-28T19:11:46.490Z,1.42
2022-07-28T19:14:16.052Z,1.30
2022-07-28T19:16:46.340Z,1.30
2022-07-28T19:19:15.384Z,1.15
2022-07-28T19:21:44.064Z,1.15
2022-07-28T19:24:13.707Z,1.20
2022-07-28T19:26:43.054Z,1.20
2022-07-28T19:35:14.512Z,1.50
2022-07-28T19:37:44.207Z,1.25
2022-07-28T19:40:13.468Z,1.15
2022-07-28T19:42:41.856Z,1.30
2022-07-28T19:45:10.728Z,1.27
2022-07-28T19:47:39.109Z,1.10
2022-07-28T19:50:07.870Z,1.20
2022-07-28T19:52:37.834Z,1.27
2022-07-28T19:55:06.733Z,1.60
2022-07-28T19:57:37.402Z,1.30
2022-07-28T20:00:07.550Z,1.20
2022-07-28T20:02:36.083Z,1.35
2022-07-28T20:05:04.822Z,1.27
2022-07-28T20:07:33.692Z,1.20
2022-07-28T20:10:03.588Z,1.15
2022-07-28T20:12:36.369Z,1.20
2022-07-28T20:15:05.528Z,1.38
2022-07-28T20:17:41.158Z,1.40
2022-07-28T20:20:12.324Z,1.48
2022-07-28T20:22:41.201Z,1.45
2022-07-28T20:25:12.164Z,1.50
2022-07-28T20:27:41.363Z,1.33
2022-07-28T20:30:10.569Z,1.27
2022-07-28T20:32:39.238Z,1.33
2022-07-28T20:35:10.001Z,1.52
2022-07-28T20:37:38.761Z,1.60
2022-07-28T20:40:08.479Z,1.55
2022-07-28T20:42:38.402Z,1.33
2022-07-28T20:45:07.836Z,1.40
2022-07-28T20:47:36.665Z,1.63
2022-07-28T20:50:05.846Z,1.67
2022-07-28T20:52:34.919Z,1.42
2022-07-28T20:55:04.681Z,1.50
2022-07-28T20:57:33.637Z,1.50
2022-07-28T21:00:03.634Z,1.58
2022-07-28T21:02:32.208Z,1.67
2022-07-28T21:05:01.514Z,1.50
2022-07-28T21:08:04.611Z,1.63
2022-07-28T21:10:18.845Z,1.85
2022-07-28T21:12:48.075Z,1.67
2022-07-28T21:15:17.968Z,1.63
2022-07-28T21:17:46.405Z,1.67
2022-07-28T21:20:15.844Z,1.50
2022-07-28T21:22:44.341Z,1.70
2022-07-28T21:25:13.096Z,1.77
2022-07-28T21:27:59.060Z,1.67
2022-07-28T21:30:28.911Z,1.55
2022-07-28T21:32:57.567Z,1.60
2022-07-28T21:35:26.384Z,1.63
2022-07-28T21:37:54.867Z,1.50
2022-07-28T21:40:24.194Z,1.90
2022-07-28T21:42:52.821Z,1.50
2022-07-28T21:45:21.658Z,1.70
2022-07-28T21:47:51.502Z,1.50
2022-07-28T21:50:20.040Z,1.50
2022-07-28T21:52:48.662Z,1.70
2022-07-28T21:55:17.124Z,1.60
2022-07-28T21:57:46.881Z,1.43
2022-07-28T22:00:17.438Z,1.90
2022-07-28T22:02:46.247Z,1.57
2022-07-28T22:05:17.185Z,1.70
2022-07-28T22:07:45.729Z,1.63
2022-07-28T22:10:14.404Z,1.87
2022-07-28T22:12:43.307Z,1.40
2022-07-28T22:15:12.102Z,1.60
2022-07-28T22:17:40.722Z,1.70
2022-07-28T22:20:10.709Z,1.43
2022-07-28T22:22:40.502Z,1.70
2022-07-28T22:25:09.820Z,1.67
2022-07-28T22:27:38.361Z,1.73
2022-07-28T22:30:07.474Z,1.93
2022-07-28T22:32:35.933Z,1.43
2022-07-28T22:35:04.336Z,1.50
2022-07-28T22:37:32.743Z,1.40
2022-07-28T22:40:02.557Z,1.70
2022-07-28T22:42:30.978Z,1.60
2022-07-28T22:45:00.503Z,1.60
2022-07-28T22:47:29.117Z,1.40
2022-07-28T22:49:57.637Z,1.53
2022-07-28T22:52:26.932Z,1.73
2022-07-28T22:54:55.592Z,1.73
2022-07-28T22:57:26.782Z,1.50
2022-07-28T22:59:56.161Z,1.60
2022-07-28T23:02:26.361Z,1.50
2022-07-28T23:04:54.846Z,1.43
2022-07-28T23:07:25.744Z,1.70
2022-07-28T23:10:12.423Z,1.57
2022-07-28T23:12:42.208Z,1.37
2022-07-28T23:15:11.649Z,1.53
2022-07-28T23:17:40.085Z,1.47
2022-07-28T23:20:08.759Z,1.70
2022-07-28T23:22:38.052Z,1.50
2022-07-28T23:25:06.890Z,1.40
2022-07-28T23:27:35.329Z,1.60
2022-07-28T23:30:05.580Z,1.40
2022-07-28T23:32:34.021Z,1.70
2022-07-28T23:35:02.612Z,1.40
2022-07-28T23:37:35.025Z,1.53
2022-07-28T23:40:04.313Z,1.50
2022-07-28T23:42:32.732Z,1.40
2022-07-28T23:45:01.119Z,1.50
2022-07-28T23:47:31.006Z,1.40
2022-07-28T23:49:59.378Z,1.30
2022-07-28T23:52:31.051Z,1.60
2022-07-28T23:54:59.625Z,1.40
2022-07-28T23:57:30.945Z,1.40
2022-07-28T23:59:59.969Z,1.50
